sensor_id;sensor_type;location;lat;lon;timestamp;temperature;humidity
51035;DHT22;37062;52.546;13.230;2023-09-07T00:00:53;21.30;99.90
51035;DHT22;37062;52.546;13.230;2023-09-07T00:03:21;21.40;99.90
51035;DHT22;37062;52.546;13.230;2023-09-07T00:05:49;21.30;99.90
51035;DHT22;37062;52.546;13.230;2023-09-07T00:08:18;21.30;99.90
51035;DHT22;37062;52.546;13.230;2023-09-07T00:10:46;21.30;99.90
51035;DHT22;37062;52.546;13.230;2023-09-07T00:13:14;21.30;99.90
51035;DHT22;37062;52.546;13.230;2023-09-07T00:15:42;21.20;99.90
51035;DHT22;37062;52.546;13.230;2023-09-07T00:18:12;21.20;99.90
51035;DHT22;37062;52.546;13.230;2023-09-07T00:20:43;21.10;99.90
51035;DHT22;37062;52.546;13.230;2023-09-07T00:23:11;21.10;99.90
51035;DHT22;37062;52.546;13.230;2023-09-07T00:25:40;21.10;99.90
51035;DHT22;37062;52.546;13.230;2023-09-07T00:28:08;21.00;99.90
51035;DHT22;37062;52.546;13.230;2023-09-07T00:30:36;21.00;99.90
51035;DHT22;37062;52.546;13.230;2023-09-07T00:33:05;20.90;99.90
51035;DHT22;37062;52.546;13.230;2023-09-07T00:35:35;20.80;99.90
51035;DHT22;37062;52.546;13.230;2023-09-07T00:38:04;20.70;99.90
51035;DHT22;37062;52.546;13.230;2023-09-07T00:40:32;20.60;99.90
51035;DHT22;37062;52.546;13.230;2023-09-07T00:43:00;20.50;99.90
51035;DHT22;37062;52.546;13.230;2023-09-07T00:45:29;20.50;99.90
51035;DHT22;37062;52.546;13.230;2023-09-07T00:47:57;20.50;99.90
51035;DHT22;37062;52.546;13.230;2023-09-07T00:50:26;20.50;99.90
51035;DHT22;37062;52.546;13.230;2023-09-07T00:52:56;20.40;99.90
51035;DHT22;37062;52.546;13.230;2023-09-07T00:55:24;20.40;99.90
51035;DHT22;37062;52.546;13.230;2023-09-07T00:57:53;20.30;99.90
51035;DHT22;37062;52.546;13.230;2023-09-07T01:00:22;20.40;99.90
51035;DHT22;37062;52.546;13.230;2023-09-07T01:02:51;20.40;99.90
51035;DHT22;37062;52.546;13.230;2023-09-07T01:05:21;20.40;99.90
51035;DHT22;37062;52.546;13.230;2023-09-07T01:07:57;20.40;99.90
51035;DHT22;37062;52.546;13.230;2023-09-07T01:10:27;20.40;99.90
51035;DHT22;37062;52.546;13.230;2023-09-07T01:12:56;20.40;99.90
51035;DHT22;37062;52.546;13.230;2023-09-07T01:15:25;20.30;99.90
51035;DHT22;37062;52.546;13.230;2023-09-07T01:17:54;20.20;99.90
51035;DHT22;37062;52.546;13.230;2023-09-07T01:20:41;20.20;99.90
51035;DHT22;37062;52.546;13.230;2023-09-07T01:23:11;20.20;99.90
51035;DHT22;37062;52.546;13.230;2023-09-07T01:25:41;20.20;99.90
51035;DHT22;37062;52.546;13.230;2023-09-07T01:28:10;20.20;99.90
51035;DHT22;37062;52.546;13.230;2023-09-07T01:30:40;20.20;99.90
51035;DHT22;37062;52.546;13.230;2023-09-07T01:33:08;20.20;99.90
51035;DHT22;37062;52.546;13.230;2023-09-07T01:35:38;20.10;99.90
51035;DHT22;37062;52.546;13.230;2023-09-07T01:38:07;20.00;99.90
51035;DHT22;37062;52.546;13.230;2023-09-07T01:40:36;20.00;99.90
51035;DHT22;37062;52.546;13.230;2023-09-07T01:43:04;20.00;99.90
51035;DHT22;37062;52.546;13.230;2023-09-07T01:45:33;19.90;99.90
51035;DHT22;37062;52.546;13.230;2023-09-07T01:48:02;19.90;99.90
51035;DHT22;37062;52.546;13.230;2023-09-07T01:50:31;19.80;99.90
51035;DHT22;37062;52.546;13.230;2023-09-07T01:53:00;19.80;99.90
51035;DHT22;37062;52.546;13.230;2023-09-07T01:55:31;19.80;99.90
51035;DHT22;37062;52.546;13.230;2023-09-07T01:58:01;19.70;99.90
51035;DHT22;37062;52.546;13.230;2023-09-07T02:00:29;19.80;99.90
51035;DHT22;37062;52.546;13.230;2023-09-07T02:02:58;19.80;99.90
51035;DHT22;37062;52.546;13.230;2023-09-07T02:05:26;19.80;99.90
51035;DHT22;37062;52.546;13.230;2023-09-07T02:07:54;19.70;99.90
51035;DHT22;37062;52.546;13.230;2023-09-07T02:10:23;19.60;99.90
51035;DHT22;37062;52.546;13.230;2023-09-07T02:12:53;19.50;99.90
51035;DHT22;37062;52.546;13.230;2023-09-07T02:15:25;19.50;99.90
51035;DHT22;37062;52.546;13.230;2023-09-07T02:17:53;19.50;99.90
51035;DHT22;37062;52.546;13.230;2023-09-07T02:20:21;19.40;99.90
51035;DHT22;37062;52.546;13.230;2023-09-07T02:22:50;19.40;99.90
51035;DHT22;37062;52.546;13.230;2023-09-07T02:25:19;19.40;99.90
51035;DHT22;37062;52.546;13.230;2023-09-07T02:27:47;19.30;99.90
51035;DHT22;37062;52.546;13.230;2023-09-07T02:30:15;19.30;99.90
51035;DHT22;37062;52.546;13.230;2023-09-07T02:32:45;19.30;99.90
51035;DHT22;37062;52.546;13.230;2023-09-07T02:35:14;19.30;99.90
51035;DHT22;37062;52.546;13.230;2023-09-07T02:37:42;19.30;99.90
51035;DHT22;37062;52.546;13.230;2023-09-07T02:40:11;19.30;99.90
51035;DHT22;37062;52.546;13.230;2023-09-07T02:42:40;19.20;99.90
51035;DHT22;37062;52.546;13.230;2023-09-07T02:45:11;19.10;99.90
51035;DHT22;37062;52.546;13.230;2023-09-07T02:47:39;19.20;99.90
51035;DHT22;37062;52.546;13.230;2023-09-07T02:50:09;19.20;99.90
51035;DHT22;37062;52.546;13.230;2023-09-07T02:52:39;19.20;99.90
51035;DHT22;37062;52.546;13.230;2023-09-07T02:55:08;19.30;99.90
51035;DHT22;37062;52.546;13.230;2023-09-07T02:57:37;19.20;99.90
51035;DHT22;37062;52.546;13.230;2023-09-07T03:00:06;19.20;99.90
51035;DHT22;37062;52.546;13.230;2023-09-07T03:02:37;19.20;99.90
51035;DHT22;37062;52.546;13.230;2023-09-07T03:05:07;19.10;99.90
51035;DHT22;37062;52.546;13.230;2023-09-07T03:07:36;19.00;99.90
51035;DHT22;37062;52.546;13.230;2023-09-07T03:10:06;18.90;99.90
51035;DHT22;37062;52.546;13.230;2023-09-07T03:12:35;18.80;99.90
51035;DHT22;37062;52.546;13.230;2023-09-07T03:15:04;18.70;99.90
51035;DHT22;37062;52.546;13.230;2023-09-07T03:17:33;18.70;99.90
51035;DHT22;37062;52.546;13.230;2023-09-07T03:20:01;18.70;99.90
51035;DHT22;37062;52.546;13.230;2023-09-07T03:22:45;18.70;99.90
51035;DHT22;37062;52.546;13.230;2023-09-07T03:25:14;18.70;99.90
51035;DHT22;37062;52.546;13.230;2023-09-07T03:27:42;18.70;99.90
51035;DHT22;37062;52.546;13.230;2023-09-07T03:30:12;18.70;99.90
51035;DHT22;37062;52.546;13.230;2023-09-07T03:32:41;18.70;99.90
51035;DHT22;37062;52.546;13.230;2023-09-07T03:35:09;18.80;99.90
51035;DHT22;37062;52.546;13.230;2023-09-07T03:37:38;18.80;99.90
51035;DHT22;37062;52.546;13.230;2023-09-07T03:40:08;18.80;99.90
51035;DHT22;37062;52.546;13.230;2023-09-07T03:42:38;18.80;99.90
51035;DHT22;37062;52.546;13.230;2023-09-07T03:45:09;18.80;99.90
51035;DHT22;37062;52.546;13.230;2023-09-07T03:47:38;18.80;99.90
51035;DHT22;37062;52.546;13.230;2023-09-07T03:50:07;18.80;99.90
51035;DHT22;37062;52.546;13.230;2023-09-07T03:52:36;18.80;99.90
51035;DHT22;37062;52.546;13.230;2023-09-07T03:55:08;18.70;99.90
51035;DHT22;37062;52.546;13.230;2023-09-07T03:57:37;18.70;99.90
51035;DHT22;37062;52.546;13.230;2023-09-07T04:00:07;18.60;99.90
51035;DHT22;37062;52.546;13.230;2023-09-07T04:02:46;18.60;99.90
51035;DHT22;37062;52.546;13.230;2023-09-07T04:05:15;18.50;99.90
51035;DHT22;37062;52.546;13.230;2023-09-07T04:07:43;18.40;99.90
51035;DHT22;37062;52.546;13.230;2023-09-07T04:10:12;18.50;99.90
51035;DHT22;37062;52.546;13.230;2023-09-07T04:12:41;18.40;99.90
51035;DHT22;37062;52.546;13.230;2023-09-07T04:15:10;18.30;99.90
51035;DHT22;37062;52.546;13.230;2023-09-07T04:17:38;18.30;99.90
51035;DHT22;37062;52.546;13.230;2023-09-07T04:20:09;18.30;99.90
51035;DHT22;37062;52.546;13.230;2023-09-07T04:22:39;18.30;99.90
51035;DHT22;37062;52.546;13.230;2023-09-07T04:25:08;18.20;99.90
51035;DHT22;37062;52.546;13.230;2023-09-07T04:27:38;18.20;99.90
51035;DHT22;37062;52.546;13.230;2023-09-07T04:30:08;18.10;99.90
51035;DHT22;37062;52.546;13.230;2023-09-07T04:32:37;18.00;99.90
51035;DHT22;37062;52.546;13.230;2023-09-07T04:35:07;18.00;99.90
51035;DHT22;37062;52.546;13.230;2023-09-07T04:37:36;18.00;99.90
51035;DHT22;37062;52.546;13.230;2023-09-07T04:40:06;18.00;99.90
51035;DHT22;37062;52.546;13.230;2023-09-07T04:42:34;18.00;99.90
51035;DHT22;37062;52.546;13.230;2023-09-07T04:45:05;18.00;99.90
51035;DHT22;37062;52.546;13.230;2023-09-07T04:47:34;18.00;99.90
51035;DHT22;37062;52.546;13.230;2023-09-07T04:50:05;18.00;99.90
51035;DHT22;37062;52.546;13.230;2023-09-07T04:52:33;18.00;99.90
51035;DHT22;37062;52.546;13.230;2023-09-07T04:55:03;18.00;99.90
51035;DHT22;37062;52.546;13.230;2023-09-07T04:57:32;18.00;99.90
51035;DHT22;37062;52.546;13.230;2023-09-07T05:00:00;18.00;99.90
51035;DHT22;37062;52.546;13.230;2023-09-07T05:02:32;18.10;99.90
51035;DHT22;37062;52.546;13.230;2023-09-07T05:05:07;18.10;99.90
51035;DHT22;37062;52.546;13.230;2023-09-07T05:07:35;18.30;99.90
51035;DHT22;37062;52.546;13.230;2023-09-07T05:10:05;18.40;99.90
51035;DHT22;37062;52.546;13.230;2023-09-07T05:12:34;18.60;99.90
51035;DHT22;37062;52.546;13.230;2023-09-07T05:15:03;18.90;99.90
51035;DHT22;37062;52.546;13.230;2023-09-07T05:17:34;19.10;99.90
51035;DHT22;37062;52.546;13.230;2023-09-07T05:20:03;19.30;99.90
51035;DHT22;37062;52.546;13.230;2023-09-07T05:22:32;19.50;99.90
51035;DHT22;37062;52.546;13.230;2023-09-07T05:25:03;19.60;99.90
51035;DHT22;37062;52.546;13.230;2023-09-07T05:27:33;19.50;99.90
51035;DHT22;37062;52.546;13.230;2023-09-07T05:30:01;19.50;99.90
51035;DHT22;37062;52.546;13.230;2023-09-07T05:32:29;19.50;99.90
51035;DHT22;37062;52.546;13.230;2023-09-07T05:34:59;19.50;99.90
51035;DHT22;37062;52.546;13.230;2023-09-07T05:37:27;19.50;99.90
51035;DHT22;37062;52.546;13.230;2023-09-07T05:39:56;19.50;99.90
51035;DHT22;37062;52.546;13.230;2023-09-07T05:42:24;19.60;99.90
51035;DHT22;37062;52.546;13.230;2023-09-07T05:44:52;19.60;99.90
51035;DHT22;37062;52.546;13.230;2023-09-07T05:47:22;19.80;99.90
51035;DHT22;37062;52.546;13.230;2023-09-07T05:49:53;19.90;99.90
51035;DHT22;37062;52.546;13.230;2023-09-07T05:52:23;20.00;99.90
51035;DHT22;37062;52.546;13.230;2023-09-07T05:54:51;20.20;99.90
51035;DHT22;37062;52.546;13.230;2023-09-07T05:57:19;20.40;99.90
51035;DHT22;37062;52.546;13.230;2023-09-07T05:59:48;20.50;99.90
51035;DHT22;37062;52.546;13.230;2023-09-07T06:02:16;20.60;99.90
51035;DHT22;37062;52.546;13.230;2023-09-07T06:04:44;20.70;99.90
51035;DHT22;37062;52.546;13.230;2023-09-07T06:07:13;20.80;99.90
51035;DHT22;37062;52.546;13.230;2023-09-07T06:09:42;20.90;99.90
51035;DHT22;37062;52.546;13.230;2023-09-07T06:12:11;21.00;99.90
51035;DHT22;37062;52.546;13.230;2023-09-07T06:14:41;21.20;99.90
51035;DHT22;37062;52.546;13.230;2023-09-07T06:17:11;21.30;99.90
51035;DHT22;37062;52.546;13.230;2023-09-07T06:19:40;21.50;99.90
51035;DHT22;37062;52.546;13.230;2023-09-07T06:22:08;21.60;99.90
51035;DHT22;37062;52.546;13.230;2023-09-07T06:24:37;21.80;99.90
51035;DHT22;37062;52.546;13.230;2023-09-07T06:27:06;22.20;99.90
51035;DHT22;37062;52.546;13.230;2023-09-07T06:29:35;22.80;99.90
51035;DHT22;37062;52.546;13.230;2023-09-07T06:32:03;23.30;99.90
51035;DHT22;37062;52.546;13.230;2023-09-07T06:34:32;23.90;99.90
51035;DHT22;37062;52.546;13.230;2023-09-07T06:37:02;24.20;99.90
51035;DHT22;37062;52.546;13.230;2023-09-07T06:39:30;24.50;99.90
51035;DHT22;37062;52.546;13.230;2023-09-07T06:41:58;24.80;99.90
51035;DHT22;37062;52.546;13.230;2023-09-07T06:44:35;25.30;99.90
51035;DHT22;37062;52.546;13.230;2023-09-07T06:47:03;25.80;99.90
51035;DHT22;37062;52.546;13.230;2023-09-07T06:49:32;26.00;99.90
51035;DHT22;37062;52.546;13.230;2023-09-07T06:52:00;26.30;99.90
51035;DHT22;37062;52.546;13.230;2023-09-07T06:54:30;26.70;99.90
51035;DHT22;37062;52.546;13.230;2023-09-07T06:56:58;27.10;99.90
51035;DHT22;37062;52.546;13.230;2023-09-07T06:59:26;27.20;99.90
51035;DHT22;37062;52.546;13.230;2023-09-07T07:01:56;27.60;99.90
51035;DHT22;37062;52.546;13.230;2023-09-07T07:04:27;28.20;99.90
51035;DHT22;37062;52.546;13.230;2023-09-07T07:06:55;28.80;99.90
51035;DHT22;37062;52.546;13.230;2023-09-07T07:09:24;28.70;99.90
51035;DHT22;37062;52.546;13.230;2023-09-07T07:11:52;28.80;99.90
51035;DHT22;37062;52.546;13.230;2023-09-07T07:14:21;28.90;99.90
51035;DHT22;37062;52.546;13.230;2023-09-07T07:16:49;29.50;99.90
51035;DHT22;37062;52.546;13.230;2023-09-07T07:19:19;30.20;99.90
51035;DHT22;37062;52.546;13.230;2023-09-07T07:21:48;30.30;99.90
51035;DHT22;37062;52.546;13.230;2023-09-07T07:24:16;30.20;99.90
51035;DHT22;37062;52.546;13.230;2023-09-07T07:26:46;30.20;99.90
51035;DHT22;37062;52.546;13.230;2023-09-07T07:29:14;30.60;99.90
51035;DHT22;37062;52.546;13.230;2023-09-07T07:31:43;30.60;99.90
51035;DHT22;37062;52.546;13.230;2023-09-07T07:34:15;30.60;99.90
51035;DHT22;37062;52.546;13.230;2023-09-07T07:36:45;30.70;99.90
51035;DHT22;37062;52.546;13.230;2023-09-07T07:39:13;31.00;99.90
51035;DHT22;37062;52.546;13.230;2023-09-07T07:41:43;31.30;99.90
51035;DHT22;37062;52.546;13.230;2023-09-07T07:44:13;31.60;99.90
51035;DHT22;37062;52.546;13.230;2023-09-07T07:46:41;31.70;99.90
51035;DHT22;37062;52.546;13.230;2023-09-07T07:49:09;31.90;99.90
51035;DHT22;37062;52.546;13.230;2023-09-07T07:51:38;32.40;99.90
51035;DHT22;37062;52.546;13.230;2023-09-07T07:54:08;32.30;99.90
51035;DHT22;37062;52.546;13.230;2023-09-07T07:56:38;31.80;99.90
51035;DHT22;37062;52.546;13.230;2023-09-07T07:59:07;31.50;99.90
51035;DHT22;37062;52.546;13.230;2023-09-07T08:01:36;31.50;99.90
51035;DHT22;37062;52.546;13.230;2023-09-07T08:04:05;31.70;99.90
51035;DHT22;37062;52.546;13.230;2023-09-07T08:06:34;31.80;99.90
51035;DHT22;37062;52.546;13.230;2023-09-07T08:09:03;32.10;99.90
51035;DHT22;37062;52.546;13.230;2023-09-07T08:11:33;32.50;99.90
51035;DHT22;37062;52.546;13.230;2023-09-07T08:14:01;32.70;99.90
51035;DHT22;37062;52.546;13.230;2023-09-07T08:16:30;33.00;99.90
51035;DHT22;37062;52.546;13.230;2023-09-07T08:18:58;33.20;99.90
51035;DHT22;37062;52.546;13.230;2023-09-07T08:21:27;33.40;99.90
51035;DHT22;37062;52.546;13.230;2023-09-07T08:23:55;33.00;99.90
51035;DHT22;37062;52.546;13.230;2023-09-07T08:26:23;32.60;99.90
51035;DHT22;37062;52.546;13.230;2023-09-07T08:28:53;32.30;99.90
51035;DHT22;37062;52.546;13.230;2023-09-07T08:31:21;32.10;99.90
51035;DHT22;37062;52.546;13.230;2023-09-07T08:33:49;32.00;99.90
51035;DHT22;37062;52.546;13.230;2023-09-07T08:36:18;31.70;99.90
51035;DHT22;37062;52.546;13.230;2023-09-07T08:38:50;31.50;99.90
51035;DHT22;37062;52.546;13.230;2023-09-07T08:41:21;31.20;99.90
51035;DHT22;37062;52.546;13.230;2023-09-07T08:43:54;30.90;99.90
51035;DHT22;37062;52.546;13.230;2023-09-07T08:46:24;31.00;99.90
51035;DHT22;37062;52.546;13.230;2023-09-07T08:48:52;30.80;99.90
51035;DHT22;37062;52.546;13.230;2023-09-07T08:51:25;30.60;99.90
51035;DHT22;37062;52.546;13.230;2023-09-07T08:53:55;30.30;99.90
51035;DHT22;37062;52.546;13.230;2023-09-07T08:56:24;30.20;99.90
51035;DHT22;37062;52.546;13.230;2023-09-07T08:58:54;30.10;99.90
51035;DHT22;37062;52.546;13.230;2023-09-07T09:01:23;30.40;99.90
51035;DHT22;37062;52.546;13.230;2023-09-07T09:03:52;30.40;99.90
51035;DHT22;37062;52.546;13.230;2023-09-07T09:06:21;30.30;99.90
51035;DHT22;37062;52.546;13.230;2023-09-07T09:08:50;30.10;99.90
51035;DHT22;37062;52.546;13.230;2023-09-07T09:11:21;30.20;99.90
51035;DHT22;37062;52.546;13.230;2023-09-07T09:13:51;30.10;99.90
51035;DHT22;37062;52.546;13.230;2023-09-07T09:16:21;30.10;99.90
51035;DHT22;37062;52.546;13.230;2023-09-07T09:18:49;30.20;99.90
51035;DHT22;37062;52.546;13.230;2023-09-07T09:21:19;30.30;99.90
51035;DHT22;37062;52.546;13.230;2023-09-07T09:23:49;30.50;99.90
51035;DHT22;37062;52.546;13.230;2023-09-07T09:26:18;30.70;99.90
51035;DHT22;37062;52.546;13.230;2023-09-07T09:28:47;30.50;99.90
51035;DHT22;37062;52.546;13.230;2023-09-07T09:31:18;30.20;99.90
51035;DHT22;37062;52.546;13.230;2023-09-07T09:33:49;29.90;99.90
51035;DHT22;37062;52.546;13.230;2023-09-07T09:36:18;29.80;99.90
51035;DHT22;37062;52.546;13.230;2023-09-07T09:38:48;30.00;99.90
51035;DHT22;37062;52.546;13.230;2023-09-07T09:41:17;30.10;99.90
51035;DHT22;37062;52.546;13.230;2023-09-07T09:43:47;30.20;99.90
51035;DHT22;37062;52.546;13.230;2023-09-07T09:46:18;30.10;99.90
51035;DHT22;37062;52.546;13.230;2023-09-07T09:48:48;30.10;99.90
51035;DHT22;37062;52.546;13.230;2023-09-07T09:51:18;29.90;99.90
51035;DHT22;37062;52.546;13.230;2023-09-07T09:53:47;29.70;99.90
51035;DHT22;37062;52.546;13.230;2023-09-07T09:56:16;29.60;99.90
51035;DHT22;37062;52.546;13.230;2023-09-07T09:58:47;29.70;99.90
51035;DHT22;37062;52.546;13.230;2023-09-07T10:01:15;29.80;99.90
51035;DHT22;37062;52.546;13.230;2023-09-07T10:03:47;30.00;99.90
51035;DHT22;37062;52.546;13.230;2023-09-07T10:06:22;30.00;99.90
51035;DHT22;37062;52.546;13.230;2023-09-07T10:08:54;29.70;99.90
51035;DHT22;37062;52.546;13.230;2023-09-07T10:11:32;29.60;99.90
51035;DHT22;37062;52.546;13.230;2023-09-07T10:14:02;29.50;99.90
51035;DHT22;37062;52.546;13.230;2023-09-07T10:16:41;29.50;99.90
51035;DHT22;37062;52.546;13.230;2023-09-07T10:19:17;29.50;99.90
51035;DHT22;37062;52.546;13.230;2023-09-07T10:21:47;29.40;99.90
51035;DHT22;37062;52.546;13.230;2023-09-07T10:24:33;29.10;99.90
51035;DHT22;37062;52.546;13.230;2023-09-07T10:27:05;29.10;99.90
51035;DHT22;37062;52.546;13.230;2023-09-07T10:29:41;29.10;99.90
51035;DHT22;37062;52.546;13.230;2023-09-07T10:32:10;29.10;99.90
51035;DHT22;37062;52.546;13.230;2023-09-07T10:34:41;28.90;99.90
51035;DHT22;37062;52.546;13.230;2023-09-07T10:37:12;29.00;99.90
51035;DHT22;37062;52.546;13.230;2023-09-07T10:39:42;29.00;99.90
51035;DHT22;37062;52.546;13.230;2023-09-07T10:42:20;28.80;99.90
51035;DHT22;37062;52.546;13.230;2023-09-07T10:44:49;28.60;99.90
51035;DHT22;37062;52.546;13.230;2023-09-07T10:47:17;28.50;99.90
51035;DHT22;37062;52.546;13.230;2023-09-07T10:49:46;28.50;99.90
51035;DHT22;37062;52.546;13.230;2023-09-07T10:52:16;28.50;99.90
51035;DHT22;37062;52.546;13.230;2023-09-07T10:54:44;28.60;99.90
51035;DHT22;37062;52.546;13.230;2023-09-07T10:57:13;28.70;99.90
51035;DHT22;37062;52.546;13.230;2023-09-07T10:59:44;28.60;99.90
51035;DHT22;37062;52.546;13.230;2023-09-07T11:02:13;28.60;99.90
51035;DHT22;37062;52.546;13.230;2023-09-07T11:04:43;28.60;99.90
51035;DHT22;37062;52.546;13.230;2023-09-07T11:07:11;28.60;99.90
51035;DHT22;37062;52.546;13.230;2023-09-07T11:09:42;28.60;99.90
51035;DHT22;37062;52.546;13.230;2023-09-07T11:12:12;28.60;99.90
51035;DHT22;37062;52.546;13.230;2023-09-07T11:14:40;28.70;99.90
51035;DHT22;37062;52.546;13.230;2023-09-07T11:17:09;28.80;99.90
51035;DHT22;37062;52.546;13.230;2023-09-07T11:19:37;28.80;99.90
51035;DHT22;37062;52.546;13.230;2023-09-07T11:22:08;28.90;99.90
51035;DHT22;37062;52.546;13.230;2023-09-07T11:24:37;28.90;99.90
51035;DHT22;37062;52.546;13.230;2023-09-07T11:27:09;28.90;99.90
51035;DHT22;37062;52.546;13.230;2023-09-07T11:29:37;29.10;99.90
51035;DHT22;37062;52.546;13.230;2023-09-07T11:32:06;29.20;99.90
51035;DHT22;37062;52.546;13.230;2023-09-07T11:34:46;29.20;99.90
51035;DHT22;37062;52.546;13.230;2023-09-07T11:37:16;29.20;99.90
51035;DHT22;37062;52.546;13.230;2023-09-07T11:39:44;29.10;99.90
51035;DHT22;37062;52.546;13.230;2023-09-07T11:42:14;29.10;99.90
51035;DHT22;37062;52.546;13.230;2023-09-07T11:44:42;29.10;99.90
51035;DHT22;37062;52.546;13.230;2023-09-07T11:47:10;29.00;99.90
51035;DHT22;37062;52.546;13.230;2023-09-07T11:49:38;29.10;99.90
51035;DHT22;37062;52.546;13.230;2023-09-07T11:52:06;29.10;99.90
51035;DHT22;37062;52.546;13.230;2023-09-07T11:54:35;29.00;99.90
51035;DHT22;37062;52.546;13.230;2023-09-07T11:57:04;29.00;99.90
51035;DHT22;37062;52.546;13.230;2023-09-07T11:59:34;29.00;99.90
51035;DHT22;37062;52.546;13.230;2023-09-07T12:02:22;29.10;99.90
51035;DHT22;37062;52.546;13.230;2023-09-07T12:04:50;29.10;99.90
51035;DHT22;37062;52.546;13.230;2023-09-07T12:07:19;29.30;99.90
51035;DHT22;37062;52.546;13.230;2023-09-07T12:09:47;29.20;99.90
51035;DHT22;37062;52.546;13.230;2023-09-07T12:12:16;29.20;99.90
51035;DHT22;37062;52.546;13.230;2023-09-07T12:14:45;29.20;99.90
51035;DHT22;37062;52.546;13.230;2023-09-07T12:17:13;29.30;99.90
51035;DHT22;37062;52.546;13.230;2023-09-07T12:19:42;29.20;99.90
51035;DHT22;37062;52.546;13.230;2023-09-07T12:22:12;29.20;99.90
51035;DHT22;37062;52.546;13.230;2023-09-07T12:24:40;29.20;99.90
51035;DHT22;37062;52.546;13.230;2023-09-07T12:27:09;29.30;99.90
51035;DHT22;37062;52.546;13.230;2023-09-07T12:29:37;29.30;99.90
51035;DHT22;37062;52.546;13.230;2023-09-07T12:32:07;29.30;99.90
51035;DHT22;37062;52.546;13.230;2023-09-07T12:34:35;29.40;99.90
51035;DHT22;37062;52.546;13.230;2023-09-07T12:37:04;29.50;99.90
51035;DHT22;37062;52.546;13.230;2023-09-07T12:39:32;29.50;99.90
51035;DHT22;37062;52.546;13.230;2023-09-07T12:42:01;29.40;99.90
51035;DHT22;37062;52.546;13.230;2023-09-07T12:44:30;29.40;99.90
51035;DHT22;37062;52.546;13.230;2023-09-07T12:46:59;29.40;99.90
51035;DHT22;37062;52.546;13.230;2023-09-07T12:49:29;29.50;99.90
51035;DHT22;37062;52.546;13.230;2023-09-07T12:51:57;29.50;99.90
51035;DHT22;37062;52.546;13.230;2023-09-07T12:54:25;29.50;99.90
51035;DHT22;37062;52.546;13.230;2023-09-07T12:56:53;29.50;99.90
51035;DHT22;37062;52.546;13.230;2023-09-07T12:59:22;29.50;99.90
51035;DHT22;37062;52.546;13.230;2023-09-07T13:01:50;29.50;99.90
51035;DHT22;37062;52.546;13.230;2023-09-07T13:04:22;29.50;99.90
51035;DHT22;37062;52.546;13.230;2023-09-07T13:06:53;29.60;99.90
51035;DHT22;37062;52.546;13.230;2023-09-07T13:09:21;29.60;99.90
51035;DHT22;37062;52.546;13.230;2023-09-07T13:11:49;29.60;99.90
51035;DHT22;37062;52.546;13.230;2023-09-07T13:14:17;29.40;99.90
51035;DHT22;37062;52.546;13.230;2023-09-07T13:17:00;29.30;99.90
51035;DHT22;37062;52.546;13.230;2023-09-07T13:19:30;29.30;99.90
51035;DHT22;37062;52.546;13.230;2023-09-07T13:22:00;29.20;99.90
51035;DHT22;37062;52.546;13.230;2023-09-07T13:24:29;29.20;99.90
51035;DHT22;37062;52.546;13.230;2023-09-07T13:26:57;29.20;99.90
51035;DHT22;37062;52.546;13.230;2023-09-07T13:29:25;29.20;99.90
51035;DHT22;37062;52.546;13.230;2023-09-07T13:31:54;29.30;99.90
51035;DHT22;37062;52.546;13.230;2023-09-07T13:34:22;29.40;99.90
51035;DHT22;37062;52.546;13.230;2023-09-07T13:36:50;29.40;99.90
51035;DHT22;37062;52.546;13.230;2023-09-07T13:39:20;29.40;99.90
51035;DHT22;37062;52.546;13.230;2023-09-07T13:41:48;29.40;99.90
51035;DHT22;37062;52.546;13.230;2023-09-07T13:44:17;29.40;99.90
51035;DHT22;37062;52.546;13.230;2023-09-07T13:46:45;29.40;99.90
51035;DHT22;37062;52.546;13.230;2023-09-07T13:49:13;29.50;99.90
51035;DHT22;37062;52.546;13.230;2023-09-07T13:51:42;29.60;99.90
51035;DHT22;37062;52.546;13.230;2023-09-07T13:54:12;29.70;99.90
51035;DHT22;37062;52.546;13.230;2023-09-07T13:56:42;29.60;99.90
51035;DHT22;37062;52.546;13.230;2023-09-07T13:59:12;29.70;99.90
51035;DHT22;37062;52.546;13.230;2023-09-07T14:01:40;29.80;99.90
51035;DHT22;37062;52.546;13.230;2023-09-07T14:04:09;29.80;99.90
51035;DHT22;37062;52.546;13.230;2023-09-07T14:06:37;29.70;99.90
51035;DHT22;37062;52.546;13.230;2023-09-07T14:09:05;29.70;99.90
51035;DHT22;37062;52.546;13.230;2023-09-07T14:11:34;29.70;99.90
51035;DHT22;37062;52.546;13.230;2023-09-07T14:14:03;29.70;99.90
51035;DHT22;37062;52.546;13.230;2023-09-07T14:16:32;29.70;99.90
51035;DHT22;37062;52.546;13.230;2023-09-07T14:19:01;29.60;99.90
51035;DHT22;37062;52.546;13.230;2023-09-07T14:21:29;29.60;99.90
51035;DHT22;37062;52.546;13.230;2023-09-07T14:23:58;29.60;99.90
51035;DHT22;37062;52.546;13.230;2023-09-07T14:26:26;29.70;99.90
51035;DHT22;37062;52.546;13.230;2023-09-07T14:28:54;29.60;99.90
51035;DHT22;37062;52.546;13.230;2023-09-07T14:31:23;29.50;99.90
51035;DHT22;37062;52.546;13.230;2023-09-07T14:33:51;29.40;99.90
51035;DHT22;37062;52.546;13.230;2023-09-07T14:36:19;29.30;99.90
51035;DHT22;37062;52.546;13.230;2023-09-07T14:38:48;29.30;99.90
51035;DHT22;37062;52.546;13.230;2023-09-07T14:41:16;29.40;99.90
51035;DHT22;37062;52.546;13.230;2023-09-07T14:43:47;29.50;99.90
51035;DHT22;37062;52.546;13.230;2023-09-07T14:46:15;29.40;99.90
51035;DHT22;37062;52.546;13.230;2023-09-07T14:48:45;29.40;99.90
51035;DHT22;37062;52.546;13.230;2023-09-07T14:51:15;29.40;99.90
51035;DHT22;37062;52.546;13.230;2023-09-07T14:53:44;29.50;99.90
51035;DHT22;37062;52.546;13.230;2023-09-07T14:56:13;29.50;99.90
51035;DHT22;37062;52.546;13.230;2023-09-07T14:58:41;29.40;99.90
51035;DHT22;37062;52.546;13.230;2023-09-07T15:01:09;29.40;99.90
51035;DHT22;37062;52.546;13.230;2023-09-07T15:03:38;29.40;99.90
51035;DHT22;37062;52.546;13.230;2023-09-07T15:06:09;29.40;99.90
51035;DHT22;37062;52.546;13.230;2023-09-07T15:08:39;29.30;99.90
51035;DHT22;37062;52.546;13.230;2023-09-07T15:11:07;29.40;99.90
51035;DHT22;37062;52.546;13.230;2023-09-07T15:13:35;29.40;99.90
51035;DHT22;37062;52.546;13.230;2023-09-07T15:16:04;29.40;99.90
51035;DHT22;37062;52.546;13.230;2023-09-07T15:18:32;29.40;99.90
51035;DHT22;37062;52.546;13.230;2023-09-07T15:21:01;29.50;99.90
51035;DHT22;37062;52.546;13.230;2023-09-07T15:23:30;29.50;99.90
51035;DHT22;37062;52.546;13.230;2023-09-07T15:26:00;29.40;99.90
51035;DHT22;37062;52.546;13.230;2023-09-07T15:28:28;29.40;99.90